Terminal Aerodrome Forecast
Issued by NWS Brownsville, TX

Home | Current Version | Previous Version | Text Only | Print | Product List | Glossary On
Versions: 1 2 3 4 5 6 7 8 9 10 11 12 13 14 15 16 17 18 19 20 21 22
000
FTUS44 KBRO 021217 AAA
TAFBRO
TAF AMD
KBRO 021217Z 0212/0312 33004KT 3SM BR BKN008 BKN013 OVC050
     FM021500 36015G22KT 5SM BR VCSH OVC010
     FM030300 36010KT P6SM OVC018
     FM030600 30006KT P6SM OVC050=

USA.gov is the U.S. government's official web portal to all federal, state and local government web resources and services.